createdAt,value
2022-11-22T00:21:39.270Z,1.40
2022-11-22T00:24:40.800Z,1.20
2022-11-22T00:27:42.535Z,1.30
2022-11-22T00:30:43.976Z,1.30
2022-11-22T00:33:45.502Z,1.40
2022-11-22T00:36:46.983Z,1.20
2022-11-22T00:39:48.450Z,1.20
2022-11-22T00:42:49.886Z,1.10
2022-11-22T00:45:51.358Z,1.00
2022-11-22T00:48:52.817Z,1.33
2022-11-22T00:51:54.275Z,1.13
2022-11-22T00:54:55.737Z,1.08
2022-11-22T00:57:57.207Z,1.05
2022-11-22T01:00:58.716Z,1.10
2022-11-22T01:04:00.395Z,1.17
2022-11-22T01:07:01.962Z,1.33
2022-11-22T01:10:04.267Z,0.98
2022-11-22T01:13:06.644Z,1.77
2022-11-22T01:16:09.873Z,1.30
2022-11-22T01:19:11.826Z,1.27
2022-11-22T01:22:13.521Z,1.20
2022-11-22T01:25:17.406Z,1.20
2022-11-22T01:28:19.332Z,1.13
2022-11-22T01:31:20.869Z,1.00
2022-11-22T01:34:22.413Z,1.10
2022-11-22T01:37:23.862Z,1.02
2022-11-22T01:40:25.312Z,1.60
2022-11-22T01:43:28.915Z,1.70
2022-11-22T01:46:37.283Z,1.83
2022-11-22T01:49:51.050Z,1.73
2022-11-22T01:52:52.790Z,2.00
2022-11-22T01:55:55.568Z,2.30
2022-11-22T01:59:01.994Z,1.90
2022-11-22T02:02:05.840Z,1.83
2022-11-22T02:05:12.807Z,2.00
2022-11-22T02:08:35.756Z,1.70
2022-11-22T02:11:41.200Z,1.90
2022-11-22T02:14:43.585Z,1.90
2022-11-22T02:17:45.041Z,1.80
2022-11-22T02:20:46.632Z,1.63
2022-11-22T02:24:13.332Z,1.88
2022-11-22T02:27:14.766Z,1.33
2022-11-22T02:30:16.295Z,1.60
2022-11-22T02:33:17.761Z,1.60
2022-11-22T02:36:19.298Z,2.03
2022-11-22T02:39:26.159Z,1.50
2022-11-22T02:42:29.702Z,1.50
2022-11-22T02:45:31.275Z,1.70
2022-11-22T02:48:33.043Z,1.70
2022-11-22T02:51:34.538Z,1.90
2022-11-22T02:54:36.002Z,2.25
2022-11-22T02:57:37.431Z,2.10
